sensor_id;sensor_type;location;lat;lon;timestamp;P1;durP1;ratioP1;P2;durP2;ratioP2
66139;SDS011;52945;51.908;8.364;2022-08-19T00:02:07;4.90;;;3.28;;
66139;SDS011;52945;51.908;8.364;2022-08-19T00:05:08;5.93;;;3.22;;
66139;SDS011;52945;51.908;8.364;2022-08-19T00:08:10;6.03;;;3.22;;
66139;SDS011;52945;51.908;8.364;2022-08-19T00:11:10;7.68;;;3.67;;
66139;SDS011;52945;51.908;8.364;2022-08-19T00:14:13;5.60;;;3.17;;
66139;SDS011;52945;51.908;8.364;2022-08-19T00:17:15;6.07;;;3.55;;
66139;SDS011;52945;51.908;8.364;2022-08-19T00:20:17;6.70;;;3.40;;
66139;SDS011;52945;51.908;8.364;2022-08-19T00:23:21;6.80;;;3.38;;
66139;SDS011;52945;51.908;8.364;2022-08-19T00:26:21;5.93;;;3.42;;
66139;SDS011;52945;51.908;8.364;2022-08-19T00:29:22;5.00;;;3.20;;
66139;SDS011;52945;51.908;8.364;2022-08-19T00:32:24;6.30;;;3.20;;
66139;SDS011;52945;51.908;8.364;2022-08-19T00:35:25;5.70;;;3.10;;
66139;SDS011;52945;51.908;8.364;2022-08-19T00:38:27;6.07;;;3.05;;
66139;SDS011;52945;51.908;8.364;2022-08-19T00:41:28;5.57;;;3.42;;
66139;SDS011;52945;51.908;8.364;2022-08-19T00:44:29;5.68;;;3.42;;
66139;SDS011;52945;51.908;8.364;2022-08-19T00:47:30;6.15;;;3.30;;
66139;SDS011;52945;51.908;8.364;2022-08-19T00:50:30;7.25;;;3.50;;
66139;SDS011;52945;51.908;8.364;2022-08-19T00:53:31;4.10;;;3.25;;
66139;SDS011;52945;51.908;8.364;2022-08-19T00:56:34;7.43;;;3.10;;
66139;SDS011;52945;51.908;8.364;2022-08-19T00:59:36;5.15;;;2.85;;
66139;SDS011;52945;51.908;8.364;2022-08-19T01:02:40;5.50;;;3.20;;
66139;SDS011;52945;51.908;8.364;2022-08-19T01:05:42;6.13;;;3.47;;
66139;SDS011;52945;51.908;8.364;2022-08-19T01:08:44;5.68;;;3.08;;
66139;SDS011;52945;51.908;8.364;2022-08-19T01:11:44;7.65;;;3.80;;
66139;SDS011;52945;51.908;8.364;2022-08-19T01:14:45;5.38;;;3.83;;
66139;SDS011;52945;51.908;8.364;2022-08-19T01:17:47;6.22;;;3.50;;
66139;SDS011;52945;51.908;8.364;2022-08-19T01:20:49;5.72;;;3.55;;
66139;SDS011;52945;51.908;8.364;2022-08-19T01:23:51;5.47;;;3.28;;
66139;SDS011;52945;51.908;8.364;2022-08-19T01:26:51;7.03;;;3.72;;
66139;SDS011;52945;51.908;8.364;2022-08-19T01:29:52;4.75;;;3.70;;
66139;SDS011;52945;51.908;8.364;2022-08-19T01:32:53;7.38;;;3.63;;
66139;SDS011;52945;51.908;8.364;2022-08-19T01:36:02;5.72;;;3.28;;
66139;SDS011;52945;51.908;8.364;2022-08-19T01:39:06;5.53;;;3.80;;
66139;SDS011;52945;51.908;8.364;2022-08-19T01:42:10;7.65;;;4.00;;
66139;SDS011;52945;51.908;8.364;2022-08-19T01:45:11;8.02;;;3.80;;
66139;SDS011;52945;51.908;8.364;2022-08-19T01:48:12;7.45;;;3.53;;
66139;SDS011;52945;51.908;8.364;2022-08-19T01:51:13;6.18;;;3.90;;
66139;SDS011;52945;51.908;8.364;2022-08-19T01:54:15;5.18;;;3.33;;
66139;SDS011;52945;51.908;8.364;2022-08-19T01:57:17;7.97;;;3.92;;
66139;SDS011;52945;51.908;8.364;2022-08-19T02:00:19;5.90;;;3.75;;
66139;SDS011;52945;51.908;8.364;2022-08-19T02:03:21;6.50;;;3.80;;
66139;SDS011;52945;51.908;8.364;2022-08-19T02:06:22;5.60;;;3.53;;
66139;SDS011;52945;51.908;8.364;2022-08-19T02:09:23;6.25;;;3.80;;
66139;SDS011;52945;51.908;8.364;2022-08-19T02:12:23;5.68;;;3.90;;
66139;SDS011;52945;51.908;8.364;2022-08-19T02:15:24;7.40;;;3.67;;
66139;SDS011;52945;51.908;8.364;2022-08-19T02:18:25;10.38;;;4.28;;
66139;SDS011;52945;51.908;8.364;2022-08-19T02:21:26;7.60;;;3.88;;
66139;SDS011;52945;51.908;8.364;2022-08-19T02:24:28;7.80;;;4.40;;
66139;SDS011;52945;51.908;8.364;2022-08-19T02:27:28;7.85;;;3.92;;
66139;SDS011;52945;51.908;8.364;2022-08-19T02:30:29;6.18;;;4.30;;
66139;SDS011;52945;51.908;8.364;2022-08-19T02:33:30;8.27;;;4.13;;
66139;SDS011;52945;51.908;8.364;2022-08-19T02:36:31;7.88;;;4.00;;
66139;SDS011;52945;51.908;8.364;2022-08-19T02:39:31;10.70;;;4.53;;
66139;SDS011;52945;51.908;8.364;2022-08-19T02:42:32;6.00;;;4.00;;
66139;SDS011;52945;51.908;8.364;2022-08-19T02:45:33;7.53;;;4.82;;
66139;SDS011;52945;51.908;8.364;2022-08-19T02:48:35;8.85;;;4.20;;
66139;SDS011;52945;51.908;8.364;2022-08-19T02:51:40;7.65;;;4.22;;
66139;SDS011;52945;51.908;8.364;2022-08-19T02:54:42;6.72;;;4.28;;
66139;SDS011;52945;51.908;8.364;2022-08-19T02:57:43;8.80;;;4.70;;
66139;SDS011;52945;51.908;8.364;2022-08-19T03:00:45;9.05;;;5.57;;
66139;SDS011;52945;51.908;8.364;2022-08-19T03:03:48;8.15;;;4.40;;
66139;SDS011;52945;51.908;8.364;2022-08-19T03:06:50;8.43;;;4.78;;
66139;SDS011;52945;51.908;8.364;2022-08-19T03:09:51;6.10;;;4.10;;
66139;SDS011;52945;51.908;8.364;2022-08-19T03:12:52;6.65;;;4.47;;
66139;SDS011;52945;51.908;8.364;2022-08-19T03:15:52;9.02;;;4.70;;
66139;SDS011;52945;51.908;8.364;2022-08-19T03:18:53;9.32;;;4.68;;
66139;SDS011;52945;51.908;8.364;2022-08-19T03:21:53;7.10;;;4.45;;
66139;SDS011;52945;51.908;8.364;2022-08-19T03:24:55;7.70;;;4.35;;
66139;SDS011;52945;51.908;8.364;2022-08-19T03:27:56;7.30;;;4.75;;
66139;SDS011;52945;51.908;8.364;2022-08-19T03:30:58;9.10;;;4.75;;
66139;SDS011;52945;51.908;8.364;2022-08-19T03:34:01;9.95;;;5.63;;
66139;SDS011;52945;51.908;8.364;2022-08-19T03:37:06;9.45;;;5.32;;
66139;SDS011;52945;51.908;8.364;2022-08-19T03:40:09;10.60;;;5.55;;
66139;SDS011;52945;51.908;8.364;2022-08-19T03:43:10;9.65;;;5.03;;
66139;SDS011;52945;51.908;8.364;2022-08-19T03:46:12;9.35;;;5.63;;
66139;SDS011;52945;51.908;8.364;2022-08-19T03:49:15;10.30;;;5.43;;
66139;SDS011;52945;51.908;8.364;2022-08-19T03:52:16;12.05;;;4.88;;
66139;SDS011;52945;51.908;8.364;2022-08-19T03:55:17;10.93;;;5.70;;
66139;SDS011;52945;51.908;8.364;2022-08-19T03:58:19;9.88;;;4.90;;
66139;SDS011;52945;51.908;8.364;2022-08-19T04:01:20;9.05;;;4.90;;
66139;SDS011;52945;51.908;8.364;2022-08-19T04:04:23;9.80;;;5.68;;
66139;SDS011;52945;51.908;8.364;2022-08-19T04:07:25;9.25;;;5.50;;
66139;SDS011;52945;51.908;8.364;2022-08-19T04:10:26;11.90;;;6.10;;
66139;SDS011;52945;51.908;8.364;2022-08-19T04:13:28;9.75;;;5.70;;
66139;SDS011;52945;51.908;8.364;2022-08-19T04:16:28;11.57;;;5.32;;
66139;SDS011;52945;51.908;8.364;2022-08-19T04:19:29;10.52;;;5.25;;
66139;SDS011;52945;51.908;8.364;2022-08-19T04:22:30;10.05;;;5.30;;
66139;SDS011;52945;51.908;8.364;2022-08-19T04:25:35;11.85;;;5.70;;
66139;SDS011;52945;51.908;8.364;2022-08-19T04:28:37;9.48;;;5.78;;
66139;SDS011;52945;51.908;8.364;2022-08-19T04:31:38;8.77;;;5.32;;
66139;SDS011;52945;51.908;8.364;2022-08-19T04:34:40;12.60;;;6.57;;
66139;SDS011;52945;51.908;8.364;2022-08-19T04:37:42;10.55;;;5.53;;
66139;SDS011;52945;51.908;8.364;2022-08-19T04:40:44;13.57;;;5.85;;
66139;SDS011;52945;51.908;8.364;2022-08-19T04:44:07;11.30;;;5.70;;
66139;SDS011;52945;51.908;8.364;2022-08-19T04:47:09;11.85;;;5.68;;
66139;SDS011;52945;51.908;8.364;2022-08-19T04:50:09;10.30;;;6.10;;
66139;SDS011;52945;51.908;8.364;2022-08-19T04:53:11;10.93;;;5.65;;
66139;SDS011;52945;51.908;8.364;2022-08-19T04:56:15;11.55;;;5.93;;
66139;SDS011;52945;51.908;8.364;2022-08-19T04:59:20;12.07;;;6.00;;
66139;SDS011;52945;51.908;8.364;2022-08-19T05:02:21;13.35;;;6.50;;
66139;SDS011;52945;51.908;8.364;2022-08-19T05:05:25;10.68;;;6.63;;
66139;SDS011;52945;51.908;8.364;2022-08-19T05:08:26;12.55;;;5.57;;
66139;SDS011;52945;51.908;8.364;2022-08-19T05:11:30;10.82;;;5.93;;
66139;SDS011;52945;51.908;8.364;2022-08-19T05:14:33;12.73;;;6.80;;
66139;SDS011;52945;51.908;8.364;2022-08-19T05:17:34;10.68;;;5.95;;
66139;SDS011;52945;51.908;8.364;2022-08-19T05:20:37;12.48;;;6.45;;
66139;SDS011;52945;51.908;8.364;2022-08-19T05:23:57;11.82;;;6.53;;
66139;SDS011;52945;51.908;8.364;2022-08-19T05:26:57;12.35;;;6.68;;
66139;SDS011;52945;51.908;8.364;2022-08-19T05:29:58;12.73;;;6.45;;
66139;SDS011;52945;51.908;8.364;2022-08-19T05:32:59;11.57;;;6.50;;
66139;SDS011;52945;51.908;8.364;2022-08-19T05:36:00;13.18;;;6.63;;
66139;SDS011;52945;51.908;8.364;2022-08-19T05:39:02;13.75;;;7.28;;
66139;SDS011;52945;51.908;8.364;2022-08-19T05:42:05;13.85;;;6.93;;
66139;SDS011;52945;51.908;8.364;2022-08-19T05:45:07;15.00;;;7.30;;
66139;SDS011;52945;51.908;8.364;2022-08-19T05:48:09;13.10;;;7.13;;
66139;SDS011;52945;51.908;8.364;2022-08-19T05:51:13;13.77;;;7.60;;
66139;SDS011;52945;51.908;8.364;2022-08-19T05:54:15;14.52;;;7.60;;
66139;SDS011;52945;51.908;8.364;2022-08-19T05:57:16;13.20;;;7.10;;
66139;SDS011;52945;51.908;8.364;2022-08-19T06:00:18;15.27;;;7.50;;
66139;SDS011;52945;51.908;8.364;2022-08-19T06:03:18;15.13;;;7.70;;
66139;SDS011;52945;51.908;8.364;2022-08-19T06:06:19;13.15;;;7.15;;
66139;SDS011;52945;51.908;8.364;2022-08-19T06:09:21;15.07;;;7.30;;
66139;SDS011;52945;51.908;8.364;2022-08-19T06:12:22;16.70;;;7.15;;
66139;SDS011;52945;51.908;8.364;2022-08-19T06:15:28;14.63;;;7.38;;
66139;SDS011;52945;51.908;8.364;2022-08-19T06:18:29;15.98;;;7.75;;
66139;SDS011;52945;51.908;8.364;2022-08-19T06:21:30;13.65;;;8.23;;
66139;SDS011;52945;51.908;8.364;2022-08-19T06:24:30;15.27;;;7.65;;
66139;SDS011;52945;51.908;8.364;2022-08-19T06:27:31;16.15;;;8.30;;
66139;SDS011;52945;51.908;8.364;2022-08-19T06:30:33;15.30;;;8.15;;
66139;SDS011;52945;51.908;8.364;2022-08-19T06:33:34;13.70;;;7.30;;
66139;SDS011;52945;51.908;8.364;2022-08-19T06:36:36;15.40;;;7.60;;
66139;SDS011;52945;51.908;8.364;2022-08-19T06:39:39;15.27;;;7.95;;
66139;SDS011;52945;51.908;8.364;2022-08-19T06:42:43;13.63;;;7.70;;
66139;SDS011;52945;51.908;8.364;2022-08-19T06:45:44;14.25;;;7.38;;
66139;SDS011;52945;51.908;8.364;2022-08-19T06:48:45;16.98;;;7.88;;
66139;SDS011;52945;51.908;8.364;2022-08-19T06:51:46;12.82;;;7.32;;
66139;SDS011;52945;51.908;8.364;2022-08-19T06:54:48;14.07;;;7.50;;
66139;SDS011;52945;51.908;8.364;2022-08-19T06:57:49;11.75;;;6.93;;
66139;SDS011;52945;51.908;8.364;2022-08-19T07:00:52;13.00;;;7.55;;
66139;SDS011;52945;51.908;8.364;2022-08-19T07:03:53;12.23;;;6.20;;
66139;SDS011;52945;51.908;8.364;2022-08-19T07:07:01;15.02;;;6.63;;
66139;SDS011;52945;51.908;8.364;2022-08-19T07:10:08;12.10;;;6.32;;
66139;SDS011;52945;51.908;8.364;2022-08-19T07:13:09;10.65;;;6.05;;
66139;SDS011;52945;51.908;8.364;2022-08-19T07:16:12;11.23;;;6.93;;
66139;SDS011;52945;51.908;8.364;2022-08-19T07:19:14;14.95;;;7.18;;
66139;SDS011;52945;51.908;8.364;2022-08-19T07:22:16;11.98;;;6.15;;
66139;SDS011;52945;51.908;8.364;2022-08-19T07:25:17;12.57;;;7.15;;
66139;SDS011;52945;51.908;8.364;2022-08-19T07:28:20;11.65;;;6.43;;
66139;SDS011;52945;51.908;8.364;2022-08-19T07:31:23;11.80;;;6.93;;
66139;SDS011;52945;51.908;8.364;2022-08-19T07:34:25;12.07;;;6.70;;
66139;SDS011;52945;51.908;8.364;2022-08-19T07:37:26;10.88;;;6.18;;
66139;SDS011;52945;51.908;8.364;2022-08-19T07:40:28;11.27;;;6.22;;
66139;SDS011;52945;51.908;8.364;2022-08-19T07:43:29;12.38;;;6.43;;
66139;SDS011;52945;51.908;8.364;2022-08-19T07:46:33;10.27;;;5.90;;
66139;SDS011;52945;51.908;8.364;2022-08-19T07:49:35;9.95;;;5.90;;
66139;SDS011;52945;51.908;8.364;2022-08-19T07:52:36;10.63;;;5.55;;
66139;SDS011;52945;51.908;8.364;2022-08-19T07:55:39;10.45;;;5.57;;
66139;SDS011;52945;51.908;8.364;2022-08-19T07:58:41;11.63;;;5.63;;
66139;SDS011;52945;51.908;8.364;2022-08-19T08:01:43;10.43;;;5.95;;
66139;SDS011;52945;51.908;8.364;2022-08-19T08:04:44;10.52;;;5.95;;
66139;SDS011;52945;51.908;8.364;2022-08-19T08:08:04;11.45;;;5.63;;
66139;SDS011;52945;51.908;8.364;2022-08-19T08:11:23;9.15;;;5.00;;
66139;SDS011;52945;51.908;8.364;2022-08-19T08:14:27;10.60;;;5.70;;
66139;SDS011;52945;51.908;8.364;2022-08-19T08:17:32;9.70;;;5.65;;
66139;SDS011;52945;51.908;8.364;2022-08-19T08:20:33;9.48;;;5.03;;
66139;SDS011;52945;51.908;8.364;2022-08-19T08:23:33;10.18;;;4.88;;
66139;SDS011;52945;51.908;8.364;2022-08-19T08:26:34;9.82;;;4.80;;
66139;SDS011;52945;51.908;8.364;2022-08-19T08:29:35;8.80;;;4.45;;
66139;SDS011;52945;51.908;8.364;2022-08-19T08:32:36;5.95;;;4.10;;
66139;SDS011;52945;51.908;8.364;2022-08-19T08:35:38;9.75;;;5.07;;
66139;SDS011;52945;51.908;8.364;2022-08-19T08:38:42;8.70;;;5.20;;
66139;SDS011;52945;51.908;8.364;2022-08-19T08:44:49;10.93;;;4.65;;
66139;SDS011;52945;51.908;8.364;2022-08-19T08:51:14;6.38;;;3.85;;
66139;SDS011;52945;51.908;8.364;2022-08-19T08:54:20;7.03;;;3.97;;
66139;SDS011;52945;51.908;8.364;2022-08-19T09:00:45;8.70;;;4.82;;
66139;SDS011;52945;51.908;8.364;2022-08-19T09:03:47;8.45;;;4.25;;
66139;SDS011;52945;51.908;8.364;2022-08-19T09:06:50;7.60;;;3.42;;
66139;SDS011;52945;51.908;8.364;2022-08-19T09:13:41;6.43;;;3.35;;
66139;SDS011;52945;51.908;8.364;2022-08-19T09:16:42;4.70;;;3.20;;
66139;SDS011;52945;51.908;8.364;2022-08-19T09:20:25;4.78;;;2.83;;
66139;SDS011;52945;51.908;8.364;2022-08-19T09:23:14;6.75;;;3.47;;
66139;SDS011;52945;51.908;8.364;2022-08-19T09:26:17;4.90;;;3.03;;
66139;SDS011;52945;51.908;8.364;2022-08-19T09:29:19;5.10;;;2.70;;
66139;SDS011;52945;51.908;8.364;2022-08-19T09:32:21;3.72;;;2.95;;
66139;SDS011;52945;51.908;8.364;2022-08-19T09:35:24;4.30;;;2.95;;
66139;SDS011;52945;51.908;8.364;2022-08-19T09:38:26;4.00;;;2.53;;
66139;SDS011;52945;51.908;8.364;2022-08-19T09:41:27;5.25;;;2.53;;
66139;SDS011;52945;51.908;8.364;2022-08-19T09:44:28;2.83;;;2.50;;
66139;SDS011;52945;51.908;8.364;2022-08-19T09:47:28;3.05;;;2.42;;
66139;SDS011;52945;51.908;8.364;2022-08-19T09:50:29;6.03;;;2.88;;
66139;SDS011;52945;51.908;8.364;2022-08-19T09:53:34;7.57;;;3.00;;
66139;SDS011;52945;51.908;8.364;2022-08-19T09:56:35;4.60;;;2.63;;
66139;SDS011;52945;51.908;8.364;2022-08-19T09:59:36;4.35;;;3.45;;
66139;SDS011;52945;51.908;8.364;2022-08-19T10:02:38;5.07;;;2.60;;
66139;SDS011;52945;51.908;8.364;2022-08-19T10:05:38;4.57;;;3.33;;
66139;SDS011;52945;51.908;8.364;2022-08-19T10:08:48;3.85;;;2.53;;
66139;SDS011;52945;51.908;8.364;2022-08-19T10:11:49;3.53;;;2.55;;
66139;SDS011;52945;51.908;8.364;2022-08-19T10:14:50;3.15;;;2.35;;
66139;SDS011;52945;51.908;8.364;2022-08-19T10:17:53;4.68;;;3.10;;
66139;SDS011;52945;51.908;8.364;2022-08-19T10:21:01;3.38;;;2.40;;
66139;SDS011;52945;51.908;8.364;2022-08-19T10:24:08;2.47;;;1.98;;
66139;SDS011;52945;51.908;8.364;2022-08-19T10:27:09;3.33;;;2.38;;
66139;SDS011;52945;51.908;8.364;2022-08-19T10:30:10;5.35;;;2.17;;
66139;SDS011;52945;51.908;8.364;2022-08-19T10:33:11;4.43;;;2.70;;
66139;SDS011;52945;51.908;8.364;2022-08-19T10:36:13;3.63;;;2.00;;
66139;SDS011;52945;51.908;8.364;2022-08-19T10:39:17;3.22;;;2.30;;
66139;SDS011;52945;51.908;8.364;2022-08-19T10:42:18;3.75;;;2.30;;
66139;SDS011;52945;51.908;8.364;2022-08-19T10:45:19;5.07;;;2.53;;
66139;SDS011;52945;51.908;8.364;2022-08-19T10:48:23;2.00;;;1.80;;
66139;SDS011;52945;51.908;8.364;2022-08-19T10:51:23;2.70;;;2.13;;
66139;SDS011;52945;51.908;8.364;2022-08-19T10:54:43;2.38;;;2.17;;
66139;SDS011;52945;51.908;8.364;2022-08-19T10:58:03;3.47;;;2.30;;
66139;SDS011;52945;51.908;8.364;2022-08-19T11:01:03;2.53;;;2.17;;
66139;SDS011;52945;51.908;8.364;2022-08-19T11:04:04;6.45;;;2.63;;
66139;SDS011;52945;51.908;8.364;2022-08-19T11:07:05;5.32;;;2.60;;
66139;SDS011;52945;51.908;8.364;2022-08-19T11:10:09;2.80;;;2.47;;
66139;SDS011;52945;51.908;8.364;2022-08-19T11:13:11;3.72;;;2.70;;
66139;SDS011;52945;51.908;8.364;2022-08-19T11:16:14;3.35;;;2.03;;
66139;SDS011;52945;51.908;8.364;2022-08-19T11:19:19;3.17;;;2.25;;
66139;SDS011;52945;51.908;8.364;2022-08-19T11:22:20;3.17;;;2.20;;
66139;SDS011;52945;51.908;8.364;2022-08-19T11:25:20;4.40;;;2.50;;
66139;SDS011;52945;51.908;8.364;2022-08-19T11:28:22;5.50;;;2.50;;
66139;SDS011;52945;51.908;8.364;2022-08-19T11:31:23;4.60;;;2.63;;
66139;SDS011;52945;51.908;8.364;2022-08-19T11:34:26;3.80;;;2.35;;
66139;SDS011;52945;51.908;8.364;2022-08-19T11:37:28;3.60;;;2.10;;
66139;SDS011;52945;51.908;8.364;2022-08-19T11:40:28;3.97;;;2.40;;
66139;SDS011;52945;51.908;8.364;2022-08-19T11:43:29;2.72;;;2.20;;
66139;SDS011;52945;51.908;8.364;2022-08-19T11:46:32;6.20;;;2.55;;
66139;SDS011;52945;51.908;8.364;2022-08-19T11:49:32;2.58;;;2.22;;
66139;SDS011;52945;51.908;8.364;2022-08-19T11:52:35;4.13;;;2.22;;
66139;SDS011;52945;51.908;8.364;2022-08-19T11:55:37;3.95;;;2.60;;
66139;SDS011;52945;51.908;8.364;2022-08-19T11:58:39;3.67;;;2.60;;
66139;SDS011;52945;51.908;8.364;2022-08-19T12:01:41;4.28;;;2.60;;
66139;SDS011;52945;51.908;8.364;2022-08-19T12:04:43;2.70;;;2.50;;
66139;SDS011;52945;51.908;8.364;2022-08-19T12:07:43;19.90;;;12.48;;
66139;SDS011;52945;51.908;8.364;2022-08-19T12:10:44;6.32;;;3.65;;
66139;SDS011;52945;51.908;8.364;2022-08-19T12:13:45;4.07;;;2.25;;
66139;SDS011;52945;51.908;8.364;2022-08-19T12:16:46;2.97;;;2.00;;
66139;SDS011;52945;51.908;8.364;2022-08-19T12:19:46;3.58;;;2.30;;
66139;SDS011;52945;51.908;8.364;2022-08-19T12:22:47;4.60;;;2.90;;
66139;SDS011;52945;51.908;8.364;2022-08-19T12:25:48;2.67;;;2.30;;
66139;SDS011;52945;51.908;8.364;2022-08-19T12:28:52;4.60;;;2.30;;
66139;SDS011;52945;51.908;8.364;2022-08-19T12:31:53;3.65;;;2.40;;
66139;SDS011;52945;51.908;8.364;2022-08-19T12:35:01;2.90;;;2.60;;
66139;SDS011;52945;51.908;8.364;2022-08-19T12:38:01;3.40;;;2.40;;
66139;SDS011;52945;51.908;8.364;2022-08-19T12:41:03;4.07;;;2.70;;
66139;SDS011;52945;51.908;8.364;2022-08-19T12:44:06;2.75;;;2.42;;
66139;SDS011;52945;51.908;8.364;2022-08-19T12:47:07;3.88;;;2.80;;
66139;SDS011;52945;51.908;8.364;2022-08-19T12:50:09;2.83;;;2.50;;
66139;SDS011;52945;51.908;8.364;2022-08-19T12:53:10;2.88;;;2.35;;
66139;SDS011;52945;51.908;8.364;2022-08-19T12:56:12;3.38;;;2.53;;
66139;SDS011;52945;51.908;8.364;2022-08-19T12:59:14;3.80;;;2.58;;
66139;SDS011;52945;51.908;8.364;2022-08-19T13:02:17;3.63;;;2.70;;
66139;SDS011;52945;51.908;8.364;2022-08-19T13:05:22;2.70;;;2.50;;
66139;SDS011;52945;51.908;8.364;2022-08-19T13:08:24;3.28;;;2.55;;
66139;SDS011;52945;51.908;8.364;2022-08-19T13:11:25;6.85;;;2.90;;
66139;SDS011;52945;51.908;8.364;2022-08-19T13:14:26;3.20;;;2.85;;
66139;SDS011;52945;51.908;8.364;2022-08-19T13:17:26;2.92;;;2.63;;
66139;SDS011;52945;51.908;8.364;2022-08-19T13:20:27;3.30;;;3.00;;
66139;SDS011;52945;51.908;8.364;2022-08-19T13:23:28;4.75;;;2.60;;
66139;SDS011;52945;51.908;8.364;2022-08-19T13:26:28;5.28;;;2.88;;
66139;SDS011;52945;51.908;8.364;2022-08-19T13:29:29;2.78;;;2.58;;
66139;SDS011;52945;51.908;8.364;2022-08-19T13:32:48;2.58;;;2.38;;
66139;SDS011;52945;51.908;8.364;2022-08-19T13:36:08;3.15;;;2.40;;
66139;SDS011;52945;51.908;8.364;2022-08-19T13:39:09;4.30;;;2.60;;
66139;SDS011;52945;51.908;8.364;2022-08-19T13:42:09;2.88;;;2.28;;
66139;SDS011;52945;51.908;8.364;2022-08-19T13:45:10;2.95;;;2.45;;
66139;SDS011;52945;51.908;8.364;2022-08-19T13:48:11;2.30;;;2.08;;
66139;SDS011;52945;51.908;8.364;2022-08-19T13:51:12;2.88;;;2.50;;
66139;SDS011;52945;51.908;8.364;2022-08-19T13:54:12;2.60;;;2.40;;
66139;SDS011;52945;51.908;8.364;2022-08-19T13:57:13;3.03;;;2.50;;
66139;SDS011;52945;51.908;8.364;2022-08-19T14:00:15;3.28;;;2.45;;
66139;SDS011;52945;51.908;8.364;2022-08-19T14:03:19;2.83;;;2.53;;
66139;SDS011;52945;51.908;8.364;2022-08-19T14:06:20;2.60;;;2.40;;
66139;SDS011;52945;51.908;8.364;2022-08-19T14:09:22;2.45;;;2.25;;
66139;SDS011;52945;51.908;8.364;2022-08-19T14:12:22;2.40;;;2.20;;
66139;SDS011;52945;51.908;8.364;2022-08-19T14:15:24;2.40;;;2.00;;
66139;SDS011;52945;51.908;8.364;2022-08-19T14:18:25;3.20;;;2.30;;
66139;SDS011;52945;51.908;8.364;2022-08-19T14:21:26;3.53;;;2.13;;
66139;SDS011;52945;51.908;8.364;2022-08-19T14:24:26;2.35;;;2.15;;
66139;SDS011;52945;51.908;8.364;2022-08-19T14:27:27;4.22;;;2.70;;
66139;SDS011;52945;51.908;8.364;2022-08-19T14:30:29;2.83;;;2.63;;
66139;SDS011;52945;51.908;8.364;2022-08-19T14:33:31;2.88;;;2.25;;
66139;SDS011;52945;51.908;8.364;2022-08-19T14:36:32;2.65;;;2.35;;
66139;SDS011;52945;51.908;8.364;2022-08-19T14:39:34;3.80;;;2.60;;
66139;SDS011;52945;51.908;8.364;2022-08-19T14:42:34;3.00;;;2.50;;
66139;SDS011;52945;51.908;8.364;2022-08-19T14:45:36;3.22;;;2.60;;
66139;SDS011;52945;51.908;8.364;2022-08-19T14:48:38;3.08;;;2.75;;
66139;SDS011;52945;51.908;8.364;2022-08-19T14:51:38;2.75;;;2.38;;
66139;SDS011;52945;51.908;8.364;2022-08-19T14:54:39;2.60;;;2.40;;
66139;SDS011;52945;51.908;8.364;2022-08-19T14:57:40;3.63;;;2.40;;
66139;SDS011;52945;51.908;8.364;2022-08-19T15:00:42;3.05;;;2.45;;
66139;SDS011;52945;51.908;8.364;2022-08-19T15:03:42;3.30;;;2.50;;
66139;SDS011;52945;51.908;8.364;2022-08-19T15:06:43;2.53;;;2.33;;
66139;SDS011;52945;51.908;8.364;2022-08-19T15:09:44;3.05;;;2.50;;
66139;SDS011;52945;51.908;8.364;2022-08-19T15:12:44;3.42;;;2.65;;
66139;SDS011;52945;51.908;8.364;2022-08-19T15:15:45;3.17;;;2.67;;
66139;SDS011;52945;51.908;8.364;2022-08-19T15:18:49;2.97;;;2.53;;
66139;SDS011;52945;51.908;8.364;2022-08-19T15:21:50;3.25;;;2.67;;
66139;SDS011;52945;51.908;8.364;2022-08-19T15:24:54;3.78;;;3.25;;
66139;SDS011;52945;51.908;8.364;2022-08-19T15:27:56;3.17;;;2.60;;
66139;SDS011;52945;51.908;8.364;2022-08-19T15:30:56;4.90;;;2.97;;
66139;SDS011;52945;51.908;8.364;2022-08-19T15:33:57;3.15;;;2.40;;
66139;SDS011;52945;51.908;8.364;2022-08-19T15:36:57;3.65;;;2.92;;
66139;SDS011;52945;51.908;8.364;2022-08-19T15:39:59;3.38;;;2.83;;
66139;SDS011;52945;51.908;8.364;2022-08-19T15:42:59;3.72;;;3.00;;
66139;SDS011;52945;51.908;8.364;2022-08-19T15:46:00;6.47;;;3.42;;
66139;SDS011;52945;51.908;8.364;2022-08-19T15:49:01;4.43;;;3.13;;
66139;SDS011;52945;51.908;8.364;2022-08-19T15:52:02;3.63;;;2.58;;
66139;SDS011;52945;51.908;8.364;2022-08-19T15:55:06;3.42;;;2.78;;
66139;SDS011;52945;51.908;8.364;2022-08-19T15:58:09;3.92;;;2.80;;
66139;SDS011;52945;51.908;8.364;2022-08-19T16:01:30;3.83;;;2.95;;
66139;SDS011;52945;51.908;8.364;2022-08-19T16:04:50;4.13;;;2.97;;
66139;SDS011;52945;51.908;8.364;2022-08-19T16:08:10;3.63;;;2.97;;
66139;SDS011;52945;51.908;8.364;2022-08-19T16:11:11;3.05;;;2.70;;
66139;SDS011;52945;51.908;8.364;2022-08-19T16:14:16;4.60;;;3.40;;
66139;SDS011;52945;51.908;8.364;2022-08-19T16:17:18;5.85;;;3.28;;
66139;SDS011;52945;51.908;8.364;2022-08-19T16:20:19;4.97;;;2.90;;
66139;SDS011;52945;51.908;8.364;2022-08-19T16:23:21;3.35;;;3.05;;
66139;SDS011;52945;51.908;8.364;2022-08-19T16:26:21;4.88;;;3.50;;
66139;SDS011;52945;51.908;8.364;2022-08-19T16:29:23;3.92;;;2.80;;
66139;SDS011;52945;51.908;8.364;2022-08-19T16:32:24;4.15;;;3.15;;
66139;SDS011;52945;51.908;8.364;2022-08-19T16:35:24;4.45;;;3.17;;
66139;SDS011;52945;51.908;8.364;2022-08-19T16:38:25;2.88;;;2.35;;
66139;SDS011;52945;51.908;8.364;2022-08-19T16:41:27;5.25;;;3.15;;
66139;SDS011;52945;51.908;8.364;2022-08-19T16:44:28;4.00;;;3.10;;
66139;SDS011;52945;51.908;8.364;2022-08-19T16:47:28;3.35;;;2.90;;
66139;SDS011;52945;51.908;8.364;2022-08-19T16:50:29;4.05;;;3.08;;
66139;SDS011;52945;51.908;8.364;2022-08-19T16:53:30;3.58;;;2.80;;
66139;SDS011;52945;51.908;8.364;2022-08-19T16:56:30;4.15;;;3.17;;
66139;SDS011;52945;51.908;8.364;2022-08-19T16:59:32;4.40;;;3.40;;
66139;SDS011;52945;51.908;8.364;2022-08-19T17:02:33;5.13;;;4.10;;
66139;SDS011;52945;51.908;8.364;2022-08-19T17:05:44;5.90;;;4.07;;
66139;SDS011;52945;51.908;8.364;2022-08-19T17:08:47;6.00;;;3.33;;
66139;SDS011;52945;51.908;8.364;2022-08-19T17:11:49;5.00;;;3.60;;
66139;SDS011;52945;51.908;8.364;2022-08-19T17:14:51;5.28;;;3.70;;
66139;SDS011;52945;51.908;8.364;2022-08-19T17:17:51;6.05;;;3.75;;
66139;SDS011;52945;51.908;8.364;2022-08-19T17:20:52;5.32;;;4.03;;
66139;SDS011;52945;51.908;8.364;2022-08-19T17:23:53;4.72;;;3.65;;
66139;SDS011;52945;51.908;8.364;2022-08-19T17:26:55;5.00;;;3.63;;
66139;SDS011;52945;51.908;8.364;2022-08-19T17:29:55;4.95;;;3.67;;
66139;SDS011;52945;51.908;8.364;2022-08-19T17:32:58;5.68;;;3.85;;
66139;SDS011;52945;51.908;8.364;2022-08-19T17:35:59;5.72;;;4.03;;
66139;SDS011;52945;51.908;8.364;2022-08-19T17:39:03;7.10;;;3.95;;
66139;SDS011;52945;51.908;8.364;2022-08-19T17:42:04;4.53;;;3.60;;
66139;SDS011;52945;51.908;8.364;2022-08-19T17:45:06;4.63;;;3.80;;
66139;SDS011;52945;51.908;8.364;2022-08-19T17:48:08;5.38;;;3.78;;
66139;SDS011;52945;51.908;8.364;2022-08-19T17:51:24;5.28;;;4.00;;
66139;SDS011;52945;51.908;8.364;2022-08-19T17:54:31;5.78;;;3.90;;
66139;SDS011;52945;51.908;8.364;2022-08-19T17:57:32;7.13;;;3.83;;
66139;SDS011;52945;51.908;8.364;2022-08-19T18:00:33;5.80;;;3.78;;
66139;SDS011;52945;51.908;8.364;2022-08-19T18:03:33;4.63;;;3.50;;
66139;SDS011;52945;51.908;8.364;2022-08-19T18:06:34;5.13;;;3.97;;
66139;SDS011;52945;51.908;8.364;2022-08-19T18:09:36;5.07;;;3.85;;
66139;SDS011;52945;51.908;8.364;2022-08-19T18:12:38;5.70;;;3.97;;
66139;SDS011;52945;51.908;8.364;2022-08-19T18:15:40;5.47;;;3.90;;
66139;SDS011;52945;51.908;8.364;2022-08-19T18:18:41;4.45;;;3.45;;
66139;SDS011;52945;51.908;8.364;2022-08-19T18:21:42;5.20;;;3.28;;
66139;SDS011;52945;51.908;8.364;2022-08-19T18:24:43;7.22;;;3.70;;
66139;SDS011;52945;51.908;8.364;2022-08-19T18:27:44;6.00;;;3.85;;
66139;SDS011;52945;51.908;8.364;2022-08-19T18:30:45;8.40;;;4.15;;